Time;durP1;ratioP1;P1;durP2;ratioP2;P2;SDS_P1;SDS_P2;PMS_P1;PMS_P2;Temp;Humidity;BMP_temperature;BMP_pressure;BME280_temperature;BME280_humidity;BME280_pressure;Samples;Min_cycle;Max_cycle;Signal;HPM_P1;HPM_P2
2022/12/03 00:01:49;;;;;;;127.10;50.60;;;;;;;-1.38;87.39;99626.76;87229;1299;98420;-79
2022/12/03 00:03:50;;;;;;;126.70;52.70;;;;;;;-1.37;87.48;99627.11;87144;1294;22503;-80
2022/12/03 00:05:51;;;;;;;;;;;;;;;-1.37;87.48;99625.73;87114;1318;98916;-81
2022/12/03 00:07:53;;;;;;;120.60;48.40;;;;;;;-1.37;87.54;99628.31;87010;1320;22456;-82
2022/12/03 00:09:54;;;;;;;121.70;50.50;;;;;;;-1.37;87.62;99627.10;86936;1309;22441;-79
2022/12/03 00:11:55;;;;;;;129.30;50.50;;;;;;;-1.36;87.50;99625.39;86803;1313;99091;-79
2022/12/03 00:13:56;;;;;;;119.20;48.60;;;;;;;-1.35;87.48;99620.22;86831;1320;22601;-81
2022/12/03 00:15:57;;;;;;;128.00;50.60;;;;;;;-1.35;87.40;99626.96;87198;1312;23772;-81
2022/12/03 00:17:58;;;;;;;124.40;49.10;;;;;;;-1.35;87.47;99626.45;86832;1317;98731;-78
2022/12/03 00:19:59;;;;;;;118.80;48.70;;;;;;;-1.34;87.51;99624.89;86945;1317;25241;-80
2022/12/03 00:22:00;;;;;;;126.90;51.00;;;;;;;-1.33;87.55;99626.13;86927;1311;23020;-80
2022/12/03 00:24:01;;;;;;;122.10;50.40;;;;;;;-1.32;87.60;99629.05;86728;1302;98832;-80
2022/12/03 00:26:02;;;;;;;128.00;51.20;;;;;;;-1.32;87.44;99630.77;86721;1314;25688;-80
2022/12/03 00:28:03;;;;;;;125.90;50.10;;;;;;;-1.31;87.49;99633.03;86822;1314;22601;-80
2022/12/03 00:30:05;;;;;;;106.70;43.90;;;;;;;-1.31;87.50;99635.61;86532;1320;99214;-80
2022/12/03 00:32:08;;;;;;;116.30;46.90;;;;;;;-1.32;87.53;99637.68;86914;1301;22648;-79
2022/12/03 00:34:09;;;;;;;123.90;49.20;;;;;;;-1.32;87.66;99637.84;86784;1320;22564;-81
2022/12/03 00:36:10;;;;;;;120.10;49.40;;;;;;;-1.32;87.50;99639.58;86643;1295;98614;-81
2022/12/03 00:38:11;;;;;;;123.60;49.90;;;;;;;-1.31;87.58;99641.30;86767;1314;22504;-80
2022/12/03 00:40:12;;;;;;;119.20;48.50;;;;;;;-1.30;87.51;99639.76;86957;1318;22682;-80
2022/12/03 00:42:13;;;;;;;;;;;;;;;-1.30;87.46;99637.16;86623;1312;98389;-79
2022/12/03 00:44:14;;;;;;;123.80;47.90;;;;;;;-1.29;87.64;99639.08;86695;1306;22510;-80
2022/12/03 00:46:15;;;;;;;115.60;46.30;;;;;;;-1.28;87.63;99639.43;86644;1314;22530;-79
2022/12/03 00:48:16;;;;;;;112.10;47.50;;;;;;;-1.27;87.61;99639.10;86880;1296;99560;-81
2022/12/03 00:50:18;;;;;;;119.30;47.90;;;;;;;-1.31;87.55;99628.89;86769;1311;23138;-78
2022/12/03 00:52:19;;;;;;;112.50;45.40;;;;;;;-1.25;87.53;99641.55;86936;1317;22452;-80
2022/12/03 00:54:21;;;;;;;116.20;47.80;;;;;;;-1.24;87.63;99635.69;86671;1310;98476;-79
2022/12/03 00:56:22;;;;;;;109.60;45.30;;;;;;;-1.24;87.61;99630.34;86934;1317;22653;-80
2022/12/03 00:58:23;;;;;;;123.40;47.20;;;;;;;-1.23;87.63;99635.54;86728;1320;26690;-81
2022/12/03 01:00:25;;;;;;;114.20;44.20;;;;;;;-1.23;87.61;99632.25;86826;1305;98507;-81
2022/12/03 01:02:26;;;;;;;110.60;45.10;;;;;;;-1.23;87.60;99631.73;86729;1314;25593;-79
2022/12/03 01:04:27;;;;;;;104.60;45.00;;;;;;;-1.22;87.62;99634.33;86742;1302;22609;-81
2022/12/03 01:06:28;;;;;;;103.50;44.80;;;;;;;-1.21;87.58;99629.34;86677;1314;98652;-80
2022/12/03 01:08:30;;;;;;;110.70;43.40;;;;;;;-1.22;87.56;99631.91;86977;1287;25402;-80
2022/12/03 01:10:30;;;;;;;100.00;41.30;;;;;;;-1.22;87.54;99628.98;86735;1313;22589;-81
2022/12/03 01:12:32;;;;;;;104.50;43.90;;;;;;;-1.24;87.52;99629.98;86829;1309;99231;-81
2022/12/03 01:14:33;;;;;;;109.50;44.50;;;;;;;-1.25;87.56;99630.85;86795;1317;24263;-80
2022/12/03 01:16:34;;;;;;;108.30;45.90;;;;;;;-1.25;87.48;99632.22;86824;1299;22596;-80
2022/12/03 01:18:35;;;;;;;123.00;46.40;;;;;;;-1.24;87.47;99623.61;86996;1317;99216;-80
2022/12/03 01:20:37;;;;;;;113.30;43.90;;;;;;;-1.25;87.54;99614.48;86812;1317;22508;-80
2022/12/03 01:22:38;;;;;;;119.90;44.30;;;;;;;-1.25;87.60;99608.60;86847;1311;22955;-80
2022/12/03 01:24:39;;;;;;;120.30;47.70;;;;;;;-1.26;87.64;99609.28;86935;1311;99318;-80
2022/12/03 01:26:40;;;;;;;120.70;48.70;;;;;;;-1.26;87.61;99613.94;86838;1312;22616;-80
2022/12/03 01:28:42;;;;;;;122.80;47.70;;;;;;;-1.27;87.57;99614.11;86744;1313;22479;-81
2022/12/03 01:33:03;;;;;;;129.50;48.90;;;;;;;-1.26;87.58;99607.04;86975;1305;24522;-81
2022/12/03 01:35:05;;;;;;;131.80;48.10;;;;;;;-1.26;87.73;99611.01;86727;1317;22515;-80
2022/12/03 01:37:05;;;;;;;;;;;;;;;-1.26;87.68;99611.87;86856;1313;98391;-80
2022/12/03 01:39:06;;;;;;;126.90;50.40;;;;;;;-1.26;87.77;99608.24;86893;1311;22705;-80
2022/12/03 01:41:07;;;;;;;129.90;50.80;;;;;;;-1.25;87.80;99605.33;86853;1312;22678;-79
2022/12/03 01:43:08;;;;;;;114.50;46.70;;;;;;;-1.24;87.77;99606.90;86727;1314;98581;-80
2022/12/03 01:45:21;;;;;;;120.00;45.50;;;;;;;-1.26;87.81;99601.88;87005;1312;22543;-79
2022/12/03 01:47:34;;;;;;;107.70;42.80;;;;;;;-1.26;87.77;99600.14;86862;1317;22959;-79
2022/12/03 01:50:00;;;;;;;132.40;49.30;;;;;;;-1.26;87.80;99605.33;86960;1297;98928;-81
2022/12/03 01:52:01;;;;;;;103.50;40.60;;;;;;;-1.26;87.72;99612.39;86952;1309;22558;-80
2022/12/03 01:54:02;;;;;;;128.40;47.20;;;;;;;-1.27;87.65;99609.45;86801;1293;98764;-79
2022/12/03 01:56:04;;;;;;;121.60;45.60;;;;;;;-1.28;87.72;99610.65;86844;1313;25537;-80
2022/12/03 01:58:09;;;;;;;;;;;;;;;-1.27;87.80;99617.02;86862;1317;22508;-81
2022/12/03 02:00:17;;;;;;;117.20;45.40;;;;;;;-1.27;87.87;99617.73;86907;1308;85789;-79
2022/12/03 02:02:27;;;;;;;114.90;45.00;;;;;;;-1.27;87.76;99619.80;87030;1313;22438;-79
2022/12/03 02:04:28;;;;;;;123.70;47.60;;;;;;;-1.26;87.83;99621.52;86858;1305;22605;-79
2022/12/03 02:06:29;;;;;;;131.00;49.60;;;;;;;-1.27;87.73;99614.11;86949;1312;98619;-80
2022/12/03 02:08:36;;;;;;;122.70;48.10;;;;;;;-1.27;87.71;99605.83;86868;1314;24269;-80
2022/12/03 02:10:37;;;;;;;133.40;48.50;;;;;;;-1.27;87.72;99606.34;86735;1313;201921;-79
2022/12/03 02:12:49;;;;;;;123.50;48.70;;;;;;;-1.29;87.76;99605.98;87145;1313;98571;-79
2022/12/03 02:14:51;;;;;;;137.60;49.80;;;;;;;-1.26;87.69;99608.44;87179;1314;22648;-79
2022/12/03 02:16:53;;;;;;;128.80;48.00;;;;;;;-1.28;87.84;99604.26;87473;1314;24357;-79
2022/12/03 02:18:56;;;;;;;141.50;53.40;;;;;;;-1.25;87.83;99606.88;88081;1313;98821;-79
2022/12/03 02:21:02;;;;;;;133.70;49.90;;;;;;;-1.25;87.79;99609.30;88034;1312;22609;-79
2022/12/03 02:23:07;;;;;;;129.80;47.10;;;;;;;-1.28;87.82;99610.46;87898;1311;22596;-82
2022/12/03 02:25:17;;;;;;;135.40;47.40;;;;;;;-1.26;87.83;99617.91;87684;1309;99114;-79
2022/12/03 02:27:18;;;;;;;138.20;47.60;;;;;;;-1.27;87.71;99616.52;87291;1312;25537;-79
2022/12/03 02:29:20;;;;;;;159.40;49.00;;;;;;;-1.28;87.82;99613.92;86859;1308;22449;-80
2022/12/03 02:31:21;;;;;;;160.10;53.40;;;;;;;-1.27;87.94;99621.35;86880;1301;98443;-81
2022/12/03 02:33:22;;;;;;;156.40;52.30;;;;;;;-1.26;87.86;99621.54;86933;1290;22472;-80
2022/12/03 02:35:27;;;;;;;153.20;53.50;;;;;;;-1.24;87.89;99624.48;86785;1314;22519;-80
2022/12/03 02:37:37;;;;;;;133.90;47.60;;;;;;;-1.23;87.89;99624.83;86906;1293;98738;-80
2022/12/03 02:39:41;;;;;;;158.30;52.90;;;;;;;-1.23;87.84;99623.80;86909;1311;22538;-79
2022/12/03 02:44:05;;;;;;;185.90;55.10;;;;;;;-1.21;87.90;99614.33;86977;1317;25410;-80
2022/12/03 02:46:07;;;;;;;189.60;56.40;;;;;;;-1.21;87.89;99615.20;86909;1314;22496;-80
2022/12/03 02:48:19;;;;;;;197.80;56.50;;;;;;;-1.23;87.85;99616.56;86804;1305;111753;-80
2022/12/03 02:50:44;;;;;;;190.50;56.70;;;;;;;-1.23;87.82;99621.56;86918;1313;22496;-80
2022/12/03 02:52:46;;;;;;;209.00;53.80;;;;;;;-1.23;87.96;99621.56;86899;1292;24287;-81
2022/12/03 02:54:48;;;;;;;227.90;57.80;;;;;;;-1.23;88.13;99625.88;86546;1315;99600;-79
2022/12/03 02:56:49;;;;;;;217.80;57.30;;;;;;;-1.22;87.96;99629.16;86966;1313;22485;-79
2022/12/03 02:58:56;;;;;;;198.40;58.80;;;;;;;-1.22;87.94;99624.16;86892;1295;22508;-79
2022/12/03 03:00:59;;;;;;;180.00;54.70;;;;;;;-1.22;88.06;99620.02;86855;1299;98494;-77
2022/12/03 03:03:03;;;;;;;192.70;55.00;;;;;;;-1.22;88.00;99621.23;87886;1296;23359;-78
2022/12/03 03:05:06;;;;;;;187.20;52.40;;;;;;;-1.22;88.01;99621.74;87089;1288;24249;-77
2022/12/03 03:07:08;;;;;;;194.30;54.00;;;;;;;-1.22;87.96;99623.47;87117;1296;98871;-78
2022/12/03 03:09:09;;;;;;;165.90;52.40;;;;;;;-1.23;87.96;99618.97;86900;1290;22994;-78
2022/12/03 03:11:10;;;;;;;211.30;55.60;;;;;;;-1.24;88.01;99616.73;86846;1295;22444;-77
2022/12/03 03:13:14;;;;;;;204.80;57.90;;;;;;;-1.24;88.02;99617.58;86749;1294;99589;-80
2022/12/03 03:15:15;;;;;;;213.80;57.50;;;;;;;-1.23;88.06;99611.58;87071;1312;23738;-78
2022/12/03 03:17:16;;;;;;;233.40;60.30;;;;;;;-1.22;88.05;99607.25;86943;1295;22584;-78
2022/12/03 03:19:18;;;;;;;199.10;57.00;;;;;;;-1.21;88.12;99603.46;86879;1287;99173;-80
2022/12/03 03:21:19;;;;;;;193.90;57.30;;;;;;;-1.21;88.10;99602.42;87123;1292;22505;-78
2022/12/03 03:23:23;;;;;;;223.10;60.60;;;;;;;-1.20;88.01;99603.31;86852;1297;22600;-78
2022/12/03 03:25:24;;;;;;;279.30;61.70;;;;;;;-1.21;88.19;99602.77;86663;1295;98431;-77
2022/12/03 03:27:27;;;;;;;247.20;56.70;;;;;;;-1.22;88.13;99599.34;86837;1295;22551;-78
2022/12/03 03:29:30;;;;;;;168.50;50.10;;;;;;;-1.23;88.11;99603.46;86729;1298;22752;-79
2022/12/03 03:31:31;;;;;;;219.40;56.10;;;;;;;-1.27;88.17;99602.73;86654;1309;98476;-78
2022/12/03 03:33:33;;;;;;;280.50;59.80;;;;;;;-1.24;88.16;99611.39;86710;1295;22509;-78
2022/12/03 03:35:36;;;;;;;231.70;54.50;;;;;;;-1.24;88.19;99615.86;86796;1308;23310;-78
2022/12/03 03:37:37;;;;;;;239.80;54.60;;;;;;;-1.23;88.09;99611.05;86777;1312;99361;-76
2022/12/03 03:39:38;;;;;;;228.00;55.60;;;;;;;-1.23;88.17;99608.45;86778;1314;22463;-77
2022/12/03 03:41:40;;;;;;;224.70;54.90;;;;;;;-1.23;88.19;99598.11;86755;1296;22444;-77
2022/12/03 03:43:44;;;;;;;247.30;56.00;;;;;;;-1.23;88.12;99599.84;86786;1289;98470;-78
2022/12/03 03:45:45;;;;;;;270.80;57.50;;;;;;;-1.22;88.34;99604.84;86721;1299;22557;-79
2022/12/03 03:47:47;;;;;;;240.20;55.60;;;;;;;-1.23;88.17;99598.80;86865;1282;23291;-79
2022/12/03 03:49:49;;;;;;;;;;;;;;;-1.21;88.26;99600.35;86705;1301;98472;-79
2022/12/03 03:51:50;;;;;;;252.20;54.30;;;;;;;-1.22;88.33;99601.91;86875;1296;23106;-79
2022/12/03 03:53:52;;;;;;;273.50;57.60;;;;;;;-1.24;88.35;99601.55;86959;1296;23406;-78
2022/12/03 03:55:53;;;;;;;285.50;59.00;;;;;;;-1.21;88.30;99597.78;86652;1299;98509;-79
2022/12/03 03:57:54;;;;;;;299.50;57.90;;;;;;;-1.23;88.38;99593.11;86827;1302;22449;-79
2022/12/03 03:59:57;;;;;;;268.30;57.10;;;;;;;-1.18;88.30;99603.33;86854;1298;22803;-78
2022/12/03 04:01:59;;;;;;;244.20;59.20;;;;;;;-1.18;88.33;99601.42;86797;1289;98231;-80
2022/12/03 04:04:00;;;;;;;194.90;52.70;;;;;;;-1.17;88.35;99601.09;86815;1279;22531;-78
2022/12/03 04:06:02;;;;;;;214.00;55.40;;;;;;;-1.17;88.38;99604.20;86617;1299;99751;-78
2022/12/03 04:08:03;;;;;;;;;;;;;;;-1.17;88.36;99609.55;86808;1312;22845;-78
2022/12/03 04:12:54;;;;;;;196.00;56.70;;;;;;;-1.16;88.36;99611.95;86833;1295;23585;-79
2022/12/03 04:14:48;;;;;;;268.40;62.70;;;;;;;-1.15;88.38;99604.05;86925;1286;23745;-78
2022/12/03 04:16:50;;;;;;;278.50;58.60;;;;;;;-1.15;88.33;99602.48;86742;1296;22744;-78
2022/12/03 04:18:51;;;;;;;230.20;57.70;;;;;;;-1.16;88.38;99608.34;86826;1296;99256;-79
2022/12/03 04:22:38;;;;;;;275.10;60.30;;;;;;;-1.16;88.28;99611.61;86746;1288;23529;-79
2022/12/03 04:23:13;;;;;;;278.20;62.90;;;;;;;-1.15;88.36;99615.24;86772;1290;22639;-77
2022/12/03 04:29:54;;;;;;;196.20;53.30;;;;;;;-1.17;88.38;99617.13;86821;1296;23397;-77
2022/12/03 04:36:34;;;;;;;182.80;56.10;;;;;;;-1.19;88.49;99603.66;86773;1311;98548;-79
2022/12/03 04:38:35;;;;;;;146.20;48.80;;;;;;;-1.18;88.46;99604.53;86903;1293;24966;-78
2022/12/03 04:42:57;;;;;;;151.30;51.20;;;;;;;-1.19;88.42;99603.66;86761;1289;98685;-79
2022/12/03 04:44:57;;;;;;;170.50;55.20;;;;;;;-1.18;88.39;99603.32;86914;1286;22970;-80
2022/12/03 04:46:59;;;;;;;202.00;60.40;;;;;;;-1.18;88.43;99603.32;86751;1296;22699;-78
2022/12/03 04:49:00;;;;;;;181.40;56.00;;;;;;;-1.17;88.46;99601.95;86691;1282;99358;-78
2022/12/03 04:51:01;;;;;;;162.10;51.20;;;;;;;-1.17;88.48;99604.72;86589;1298;22579;-78
2022/12/03 04:53:02;;;;;;;162.80;54.90;;;;;;;-1.17;88.55;99608.17;86876;1294;25568;-78
2022/12/03 04:55:04;;;;;;;166.20;55.20;;;;;;;-1.17;88.50;99610.23;86823;1287;98410;-77
2022/12/03 04:57:06;;;;;;;195.30;55.90;;;;;;;-1.17;88.48;99600.92;86775;1312;24375;-78
2022/12/03 04:59:07;;;;;;;194.40;58.00;;;;;;;-1.16;88.51;99603.50;86834;1285;22680;-78
2022/12/03 05:01:08;;;;;;;168.50;52.00;;;;;;;-1.15;88.58;99601.63;86685;1309;98471;-78
2022/12/03 05:03:09;;;;;;;158.20;48.70;;;;;;;-1.14;88.48;99602.33;86739;1289;22587;-78
2022/12/03 05:05:10;;;;;;;183.90;53.90;;;;;;;-1.14;88.53;99603.70;86937;1294;22490;-79
2022/12/03 05:07:11;;;;;;;176.70;57.60;;;;;;;-1.14;88.55;99606.82;86741;1303;98685;-80
2022/12/03 05:09:13;;;;;;;167.10;52.10;;;;;;;-1.13;88.51;99615.28;86668;1296;23024;-78
2022/12/03 05:11:14;;;;;;;175.70;55.90;;;;;;;-1.13;88.54;99617.86;86690;1305;26691;-78
2022/12/03 05:13:15;;;;;;;152.10;51.00;;;;;;;-1.12;88.57;99620.28;86747;1308;98410;-78
2022/12/03 05:15:16;;;;;;;150.70;48.60;;;;;;;-1.12;88.55;99619.77;86759;1296;22512;-78
2022/12/03 05:17:16;;;;;;;150.40;51.40;;;;;;;-1.12;88.55;99626.66;86695;1289;22627;-78
2022/12/03 05:19:18;;;;;;;;;;;;;;;-1.12;88.39;99623.89;86738;1295;99257;-78
2022/12/03 05:21:20;;;;;;;154.30;48.30;;;;;;;-1.13;88.57;99616.66;86835;1296;22556;-78
2022/12/03 05:23:21;;;;;;;159.90;52.90;;;;;;;-1.13;88.52;99611.65;86851;1288;22511;-79
2022/12/03 05:25:22;;;;;;;159.20;53.30;;;;;;;-1.12;88.57;99611.30;86703;1282;98591;-77
2022/12/03 05:27:23;;;;;;;162.10;51.90;;;;;;;-1.10;88.62;99612.20;86818;1296;25358;-79
2022/12/03 05:29:24;;;;;;;163.10;51.40;;;;;;;-1.10;88.52;99607.37;86731;1281;22482;-78
2022/12/03 05:31:25;;;;;;;143.50;47.10;;;;;;;-1.12;88.43;99603.04;86726;1287;98446;-77
2022/12/03 05:33:26;;;;;;;154.00;48.20;;;;;;;-1.14;88.41;99603.02;86823;1296;22832;-78
2022/12/03 05:35:27;;;;;;;152.10;49.40;;;;;;;-1.17;88.24;99602.30;86715;1288;22697;-79
2022/12/03 05:37:28;;;;;;;175.40;52.90;;;;;;;-1.17;88.52;99604.38;86620;1296;99786;-78
2022/12/03 05:39:29;;;;;;;164.60;54.20;;;;;;;-1.17;88.46;99601.45;86765;1320;22661;-78
2022/12/03 05:44:03;;;;;;;169.40;56.10;;;;;;;-1.18;88.53;99594.20;86568;1296;22611;-79
2022/12/03 05:46:04;;;;;;;163.80;50.20;;;;;;;-1.13;88.51;99603.21;86754;1289;22519;-78
2022/12/03 05:48:08;;;;;;;163.40;50.80;;;;;;;-1.13;88.63;99599.41;86736;1301;98569;-78
2022/12/03 05:50:10;;;;;;;175.70;51.40;;;;;;;-1.14;88.59;99600.96;86733;1311;22492;-77
2022/12/03 05:52:11;;;;;;;;;;;;;;;-1.13;88.65;99608.89;86823;1306;24241;-79
2022/12/03 05:54:11;;;;;;;155.70;46.40;;;;;;;-1.13;88.48;99608.71;86769;1283;84573;-80
2022/12/03 05:56:12;;;;;;;147.60;45.80;;;;;;;-1.13;88.54;99609.06;86709;1289;23059;-79
2022/12/03 05:58:13;;;;;;;167.10;49.10;;;;;;;-1.15;88.53;99604.73;86496;1289;22501;-76
2022/12/03 06:00:18;;;;;;;187.30;53.60;;;;;;;-1.16;88.64;99597.82;86304;1282;100507;-76
2022/12/03 06:02:19;;;;;;;193.60;57.20;;;;;;;-1.16;88.50;99595.92;86576;1279;24345;-76
2022/12/03 06:04:20;;;;;;;175.00;57.30;;;;;;;-1.16;88.57;99596.45;86703;1287;22489;-76
2022/12/03 06:06:21;;;;;;;157.70;55.10;;;;;;;-1.16;88.50;99594.89;86348;1285;99057;-75
2022/12/03 06:08:22;;;;;;;161.30;54.50;;;;;;;-1.17;88.57;99597.65;86474;1280;24499;-76
2022/12/03 06:10:25;;;;;;;154.80;51.60;;;;;;;-1.17;88.64;99604.55;86418;1287;22514;-75
2022/12/03 06:12:26;;;;;;;140.70;49.00;;;;;;;-1.17;88.59;99605.73;86372;1289;98414;-77
2022/12/03 06:14:29;;;;;;;161.80;53.10;;;;;;;-1.18;88.63;99606.61;86404;1283;24002;-75
2022/12/03 06:16:30;;;;;;;156.70;53.50;;;;;;;-1.18;88.59;99609.88;86357;1289;22474;-75
2022/12/03 06:18:31;;;;;;;162.60;54.40;;;;;;;-1.17;88.66;99612.13;86159;1286;98459;-74
2022/12/03 06:20:32;;;;;;;153.70;52.00;;;;;;;-1.16;88.55;99614.20;86417;1283;22598;-75
2022/12/03 06:22:33;;;;;;;162.50;53.90;;;;;;;-1.15;88.64;99609.21;86602;1288;22722;-75
2022/12/03 06:24:34;;;;;;;145.60;51.10;;;;;;;-1.14;88.62;99613.19;86585;1288;100556;-77
2022/12/03 06:26:35;;;;;;;171.30;57.30;;;;;;;-1.12;88.64;99614.25;86716;1289;22583;-74
2022/12/03 06:28:35;;;;;;;150.80;51.50;;;;;;;-1.10;88.65;99609.10;86608;1294;22498;-75
2022/12/03 06:30:36;;;;;;;144.40;50.40;;;;;;;-1.09;88.69;99607.38;86727;1286;98633;-75
2022/12/03 06:32:37;;;;;;;119.40;43.70;;;;;;;-1.10;88.50;99606.86;86875;1288;24931;-75
2022/12/03 06:34:39;;;;;;;;;;;;;;;-1.15;88.47;99609.39;86723;1286;22546;-76
2022/12/03 06:36:39;;;;;;;132.80;48.30;;;;;;;-1.18;88.48;99614.89;86663;1312;85434;-76
2022/12/03 06:38:40;;;;;;;141.10;49.50;;;;;;;-1.17;88.61;99613.17;86635;1293;22648;-75
2022/12/03 06:40:42;;;;;;;147.10;52.30;;;;;;;-1.18;88.61;99611.09;86621;1289;22545;-75
2022/12/03 06:42:43;;;;;;;137.90;50.90;;;;;;;-1.17;88.58;99607.48;86538;1282;99087;-76
2022/12/03 06:44:44;;;;;;;;;;;;;;;-1.16;88.59;99609.73;86706;1311;25257;-76
2022/12/03 06:46:45;;;;;;;137.50;48.70;;;;;;;-1.17;88.62;99618.17;86730;1288;22502;-76
2022/12/03 06:48:46;;;;;;;140.60;50.60;;;;;;;-1.16;88.61;99620.74;86738;1289;98380;-75
2022/12/03 06:50:47;;;;;;;127.90;48.00;;;;;;;-1.15;88.64;99625.09;86589;1295;26930;-75
2022/12/03 06:52:50;;;;;;;127.60;45.60;;;;;;;-1.16;88.54;99623.52;86779;1289;22497;-74
2022/12/03 06:54:51;;;;;;;124.40;48.00;;;;;;;-1.18;88.56;99622.82;86530;1282;99540;-75
2022/12/03 06:56:53;;;;;;;108.40;41.30;;;;;;;-1.18;88.59;99623.67;86981;1311;23076;-75
2022/12/03 06:58:54;;;;;;;142.80;49.20;;;;;;;-1.21;88.52;99622.63;86848;1296;22495;-76
2022/12/03 07:00:55;;;;;;;130.70;48.50;;;;;;;-1.23;88.52;99625.53;86714;1282;99717;-75
2022/12/03 07:02:55;;;;;;;102.80;34.80;;;;;;;-1.23;88.56;99624.33;87016;1287;22491;-75
2022/12/03 07:04:57;;;;;;;106.80;39.10;;;;;;;-1.24;88.52;99622.58;86812;1296;22544;-78
2022/12/03 07:06:58;;;;;;;108.80;43.50;;;;;;;-1.26;88.41;99621.70;86639;1289;98997;-74
2022/12/03 07:08:58;;;;;;;150.30;49.90;;;;;;;-1.29;88.39;99624.09;86552;1288;22536;-75
2022/12/03 07:11:00;;;;;;;142.90;51.80;;;;;;;-1.27;88.60;99623.08;86612;1279;22601;-75
2022/12/03 07:13:01;;;;;;;151.10;53.10;;;;;;;-1.26;88.54;99624.11;86575;1289;99047;-74
2022/12/03 07:15:02;;;;;;;136.80;49.70;;;;;;;-1.24;88.62;99629.48;86906;1292;22576;-75
2022/12/03 07:17:03;;;;;;;148.90;49.60;;;;;;;-1.22;88.65;99627.42;86691;1289;22484;-75
2022/12/03 07:19:05;;;;;;;130.80;49.20;;;;;;;-1.21;88.79;99631.23;86784;1302;100522;-76
2022/12/03 07:21:06;;;;;;;155.40;52.40;;;;;;;-1.20;88.70;99628.66;87090;1290;25410;-74
2022/12/03 07:23:07;;;;;;;137.10;50.00;;;;;;;-1.18;88.76;99628.68;87319;1296;22798;-76
2022/12/03 07:25:09;;;;;;;137.10;49.60;;;;;;;-1.18;88.61;99634.88;86821;1287;98535;-74
2022/12/03 07:27:11;;;;;;;;;;;;;;;-1.19;88.47;99638.67;87085;1287;22510;-76
2022/12/03 07:29:13;;;;;;;122.50;44.00;;;;;;;-1.23;88.60;99642.25;87219;1295;24321;-77
2022/12/03 07:31:14;;;;;;;132.10;45.30;;;;;;;-1.24;88.50;99641.02;87444;1289;99518;-75
2022/12/03 07:33:15;;;;;;;126.90;46.60;;;;;;;-1.24;88.58;99647.23;86694;1293;22890;-78
2022/12/03 07:35:17;;;;;;;138.30;45.80;;;;;;;-1.25;88.57;99650.50;86692;1295;22518;-76
2022/12/03 07:37:18;;;;;;;113.60;42.00;;;;;;;-1.25;88.51;99648.27;86629;1293;98725;-77
2022/12/03 07:39:19;;;;;;;132.20;46.20;;;;;;;-1.26;88.61;99647.05;86763;1289;22620;-76
2022/12/03 07:41:20;;;;;;;133.50;44.80;;;;;;;-1.26;88.47;99650.33;86986;1286;22803;-77
2022/12/03 07:43:21;;;;;;;126.80;44.70;;;;;;;-1.32;88.50;99640.61;86663;1289;98641;-76
2022/12/03 07:45:23;;;;;;;143.70;47.90;;;;;;;-1.27;88.53;99643.06;86835;1294;22515;-75
2022/12/03 07:47:24;;;;;;;134.60;50.30;;;;;;;-1.26;88.58;99641.01;86566;1289;24410;-76
2022/12/03 07:49:25;;;;;;;153.40;52.10;;;;;;;-1.24;88.68;99639.30;86445;1288;98832;-78
2022/12/03 07:51:27;;;;;;;155.10;51.60;;;;;;;-1.22;88.72;99633.29;86620;1289;25392;-76
2022/12/03 07:53:28;;;;;;;148.70;51.80;;;;;;;-1.21;88.63;99631.05;86499;1290;22511;-76
2022/12/03 07:55:28;;;;;;;141.00;52.40;;;;;;;-1.22;88.64;99632.61;86348;1281;99553;-76
2022/12/03 07:57:29;;;;;;;151.10;53.50;;;;;;;-1.22;88.71;99632.08;86585;1278;22557;-77
2022/12/03 07:59:31;;;;;;;162.30;55.80;;;;;;;-1.22;88.70;99630.02;86524;1280;22607;-76
2022/12/03 08:01:31;;;;;;;169.10;61.50;;;;;;;-1.22;88.66;99633.46;86282;1288;99616;-75
2022/12/03 08:03:32;;;;;;;158.20;57.90;;;;;;;-1.19;88.66;99635.39;86461;1297;22487;-76
2022/12/03 08:05:33;;;;;;;167.20;56.80;;;;;;;-1.19;88.67;99635.39;86481;1287;22489;-77
2022/12/03 08:07:34;;;;;;;169.40;55.30;;;;;;;-1.18;88.75;99634.02;86282;1288;99092;-74
2022/12/03 08:09:38;;;;;;;179.50;59.00;;;;;;;-1.16;88.72;99637.83;86389;1285;25449;-75
2022/12/03 08:11:39;;;;;;;165.20;59.20;;;;;;;-1.15;88.69;99640.09;86541;1288;22736;-76
2022/12/03 08:13:41;;;;;;;170.60;57.30;;;;;;;-1.14;88.66;99634.74;86340;1296;98543;-76
2022/12/03 08:15:43;;;;;;;154.20;56.40;;;;;;;-1.14;88.81;99629.75;86569;1293;24258;-78
2022/12/03 08:17:50;;;;;;;176.70;57.50;;;;;;;-1.14;88.63;99627.33;86328;1282;23769;-76
2022/12/03 08:19:52;;;;;;;188.50;60.80;;;;;;;-1.14;88.64;99623.89;86369;1279;98485;-75
2022/12/03 08:21:53;;;;;;;169.30;56.50;;;;;;;-1.15;88.76;99622.49;86522;1293;24243;-77
2022/12/03 08:24:11;;;;;;;174.80;58.10;;;;;;;-1.16;88.85;99616.10;86968;1289;26615;-75
2022/12/03 08:26:27;;;;;;;159.20;54.60;;;;;;;-1.15;88.76;99613.20;86697;1295;25948;-76
2022/12/03 08:28:28;;;;;;;176.30;57.10;;;;;;;-1.14;88.75;99618.89;87261;1304;22492;-75
2022/12/03 08:30:29;;;;;;;174.00;57.60;;;;;;;-1.13;88.83;99622.52;86875;1296;100349;-77
2022/12/03 08:32:30;;;;;;;147.70;54.20;;;;;;;-1.13;88.69;99625.96;86858;1289;23590;-77
2022/12/03 08:34:40;;;;;;;173.50;56.20;;;;;;;-1.12;88.75;99626.48;87121;1289;22528;-76
2022/12/03 08:36:41;;;;;;;195.40;61.60;;;;;;;-1.11;88.68;99629.61;87259;1291;99135;-76
2022/12/03 08:38:57;;;;;;;179.40;58.60;;;;;;;-1.12;88.75;99630.98;87863;1295;22535;-78
2022/12/03 08:40:59;;;;;;;178.40;59.10;;;;;;;-1.12;88.73;99630.46;87684;1287;22547;-77
2022/12/03 08:43:00;;;;;;;169.40;59.20;;;;;;;-1.12;88.81;99635.80;86992;1296;99817;-77
2022/12/03 08:45:28;;;;;;;167.60;57.90;;;;;;;-1.09;88.78;99635.84;87092;1303;22652;-78
2022/12/03 08:47:29;;;;;;;189.40;61.80;;;;;;;-1.08;88.79;99636.71;87205;1286;25309;-77
2022/12/03 08:49:30;;;;;;;185.00;60.70;;;;;;;-1.06;88.75;99639.48;87070;1295;100046;-76
2022/12/03 08:51:31;;;;;;;170.80;60.80;;;;;;;-1.07;88.80;99639.64;86783;1291;22441;-77
2022/12/03 08:53:50;;;;;;;178.80;56.90;;;;;;;-1.07;88.78;99643.08;86969;1290;22562;-75
2022/12/03 08:55:53;;;;;;;172.70;55.50;;;;;;;-1.07;88.77;99645.67;86977;1295;98738;-78
2022/12/03 08:57:54;;;;;;;179.00;57.70;;;;;;;-1.08;88.74;99645.66;87006;1288;22527;-78
2022/12/03 09:00:20;;;;;;;168.90;56.00;;;;;;;-1.09;88.81;99643.23;87058;1286;22497;-77
2022/12/03 09:02:33;;;;;;;217.00;60.70;;;;;;;-1.09;88.81;99634.98;86879;1286;22480;-76
2022/12/03 09:04:46;;;;;;;204.70;59.40;;;;;;;-1.08;88.78;99634.11;86985;1295;22500;-78
2022/12/03 09:06:48;;;;;;;211.20;62.50;;;;;;;-1.08;88.85;99635.50;86716;1296;99416;-75
2022/12/03 09:08:50;;;;;;;167.50;54.50;;;;;;;-1.09;88.77;99633.26;87014;1286;22477;-76
2022/12/03 09:10:51;;;;;;;178.50;60.00;;;;;;;-1.08;88.82;99635.49;86917;1294;22471;-77
2022/12/03 09:12:52;;;;;;;196.90;58.50;;;;;;;-1.07;88.94;99634.47;86658;1292;98472;-75
2022/12/03 09:14:53;;;;;;;183.30;56.80;;;;;;;-1.03;88.92;99637.95;86668;1280;25788;-75
2022/12/03 09:16:55;;;;;;;204.00;60.60;;;;;;;-1.01;88.90;99639.52;86472;1289;22549;-75
2022/12/03 09:18:56;;;;;;;177.50;55.40;;;;;;;-0.99;88.90;99644.55;86411;1289;98629;-76
2022/12/03 09:20:57;;;;;;;165.10;54.80;;;;;;;-0.96;89.03;99644.91;86501;1279;22701;-75
2022/12/03 09:22:58;;;;;;;160.60;53.50;;;;;;;-0.95;88.79;99642.52;86393;1282;22428;-76
2022/12/03 09:24:59;;;;;;;166.60;55.60;;;;;;;-0.94;88.91;99646.50;86461;1290;98490;-76
2022/12/03 09:27:00;;;;;;;157.60;52.70;;;;;;;-0.93;88.88;99647.19;86457;1282;22554;-76
2022/12/03 09:29:01;;;;;;;171.80;54.60;;;;;;;-0.94;88.92;99640.98;86446;1287;24351;-77
2022/12/03 09:31:02;;;;;;;183.40;54.10;;;;;;;-0.94;88.87;99641.49;86489;1285;98471;-75
2022/12/03 09:33:04;;;;;;;;;;;;;;;-0.93;88.72;99637.01;86358;1290;23925;-76
2022/12/03 09:35:06;;;;;;;212.20;54.70;;;;;;;-1.01;88.72;99635.23;86385;1290;21978;-75
2022/12/03 09:37:08;;;;;;;139.60;49.00;;;;;;;-0.98;88.68;99640.24;86319;1293;99458;-77
2022/12/03 09:39:09;;;;;;;182.50;57.40;;;;;;;-1.05;88.86;99628.80;86356;1282;22484;-76
2022/12/03 09:41:10;;;;;;;177.00;53.10;;;;;;;-0.99;88.85;99633.34;86273;1289;23138;-74
2022/12/03 09:43:11;;;;;;;;;;;;;;;-1.02;88.68;99634.52;86180;1282;98471;-75